sensor_id;sensor_type;location;lat;lon;timestamp;P1;durP1;ratioP1;P2;durP2;ratioP2
70953;SDS011;58618;47.490;8.736;2023-06-19T00:00:39;7.45;;;4.80;;
70953;SDS011;58618;47.490;8.736;2023-06-19T00:03:26;6.43;;;5.07;;
70953;SDS011;58618;47.490;8.736;2023-06-19T00:06:14;7.23;;;5.23;;
70953;SDS011;58618;47.490;8.736;2023-06-19T00:09:01;7.78;;;5.20;;
70953;SDS011;58618;47.490;8.736;2023-06-19T00:11:48;7.55;;;5.15;;
70953;SDS011;58618;47.490;8.736;2023-06-19T00:14:37;7.85;;;5.60;;
70953;SDS011;58618;47.490;8.736;2023-06-19T00:17:25;7.80;;;5.57;;
70953;SDS011;58618;47.490;8.736;2023-06-19T00:20:13;8.83;;;5.30;;
70953;SDS011;58618;47.490;8.736;2023-06-19T00:23:00;8.45;;;5.03;;
70953;SDS011;58618;47.490;8.736;2023-06-19T00:25:47;7.22;;;5.15;;
70953;SDS011;58618;47.490;8.736;2023-06-19T00:28:35;9.73;;;5.65;;
70953;SDS011;58618;47.490;8.736;2023-06-19T00:31:28;8.10;;;5.50;;
70953;SDS011;58618;47.490;8.736;2023-06-19T00:34:16;9.37;;;5.40;;
70953;SDS011;58618;47.490;8.736;2023-06-19T00:37:03;7.88;;;5.40;;
70953;SDS011;58618;47.490;8.736;2023-06-19T00:39:51;8.30;;;5.65;;
70953;SDS011;58618;47.490;8.736;2023-06-19T00:42:38;7.15;;;5.20;;
70953;SDS011;58618;47.490;8.736;2023-06-19T00:45:26;8.38;;;5.40;;
70953;SDS011;58618;47.490;8.736;2023-06-19T00:48:15;7.27;;;5.13;;
70953;SDS011;58618;47.490;8.736;2023-06-19T00:51:03;9.20;;;5.70;;
70953;SDS011;58618;47.490;8.736;2023-06-19T00:53:50;7.88;;;5.32;;
70953;SDS011;58618;47.490;8.736;2023-06-19T00:56:37;8.38;;;5.90;;
70953;SDS011;58618;47.490;8.736;2023-06-19T00:59:27;7.45;;;5.03;;
70953;SDS011;58618;47.490;8.736;2023-06-19T01:02:14;7.77;;;5.37;;
70953;SDS011;58618;47.490;8.736;2023-06-19T01:05:03;7.90;;;5.13;;
70953;SDS011;58618;47.490;8.736;2023-06-19T01:07:52;7.05;;;4.70;;
70953;SDS011;58618;47.490;8.736;2023-06-19T01:10:47;7.28;;;5.05;;
70953;SDS011;58618;47.490;8.736;2023-06-19T01:13:40;6.90;;;5.28;;
70953;SDS011;58618;47.490;8.736;2023-06-19T01:16:31;7.30;;;5.20;;
70953;SDS011;58618;47.490;8.736;2023-06-19T01:19:20;9.70;;;5.45;;
70953;SDS011;58618;47.490;8.736;2023-06-19T01:22:10;7.07;;;5.00;;
70953;SDS011;58618;47.490;8.736;2023-06-19T01:24:57;7.63;;;5.25;;
70953;SDS011;58618;47.490;8.736;2023-06-19T01:27:45;7.78;;;5.20;;
70953;SDS011;58618;47.490;8.736;2023-06-19T01:30:33;7.50;;;5.17;;
70953;SDS011;58618;47.490;8.736;2023-06-19T01:33:22;9.15;;;5.43;;
70953;SDS011;58618;47.490;8.736;2023-06-19T01:36:12;8.00;;;5.05;;
70953;SDS011;58618;47.490;8.736;2023-06-19T01:39:02;7.35;;;5.22;;
70953;SDS011;58618;47.490;8.736;2023-06-19T01:41:51;8.55;;;5.60;;
70953;SDS011;58618;47.490;8.736;2023-06-19T01:44:40;7.43;;;5.67;;
70953;SDS011;58618;47.490;8.736;2023-06-19T01:47:27;7.97;;;5.90;;
70953;SDS011;58618;47.490;8.736;2023-06-19T01:50:15;7.38;;;5.30;;
70953;SDS011;58618;47.490;8.736;2023-06-19T01:53:02;7.88;;;6.05;;
70953;SDS011;58618;47.490;8.736;2023-06-19T01:55:51;6.97;;;4.93;;
70953;SDS011;58618;47.490;8.736;2023-06-19T01:58:39;8.00;;;5.40;;
70953;SDS011;58618;47.490;8.736;2023-06-19T02:01:26;7.38;;;5.40;;
70953;SDS011;58618;47.490;8.736;2023-06-19T02:04:13;7.65;;;5.60;;
70953;SDS011;58618;47.490;8.736;2023-06-19T02:07:01;7.57;;;5.20;;
70953;SDS011;58618;47.490;8.736;2023-06-19T02:09:48;8.13;;;5.35;;
70953;SDS011;58618;47.490;8.736;2023-06-19T02:12:37;8.67;;;5.10;;
70953;SDS011;58618;47.490;8.736;2023-06-19T02:15:24;8.13;;;5.60;;
70953;SDS011;58618;47.490;8.736;2023-06-19T02:18:11;7.90;;;5.25;;
70953;SDS011;58618;47.490;8.736;2023-06-19T02:20:59;7.07;;;5.20;;
70953;SDS011;58618;47.490;8.736;2023-06-19T02:23:46;8.32;;;5.40;;
70953;SDS011;58618;47.490;8.736;2023-06-19T02:26:33;9.07;;;5.70;;
70953;SDS011;58618;47.490;8.736;2023-06-19T02:29:22;10.32;;;6.10;;
70953;SDS011;58618;47.490;8.736;2023-06-19T02:32:09;7.32;;;5.30;;
70953;SDS011;58618;47.490;8.736;2023-06-19T02:34:57;7.70;;;5.60;;
70953;SDS011;58618;47.490;8.736;2023-06-19T02:37:44;6.95;;;5.03;;
70953;SDS011;58618;47.490;8.736;2023-06-19T02:40:33;8.23;;;5.50;;
70953;SDS011;58618;47.490;8.736;2023-06-19T02:43:20;9.18;;;6.00;;
70953;SDS011;58618;47.490;8.736;2023-06-19T02:46:09;8.10;;;5.88;;
70953;SDS011;58618;47.490;8.736;2023-06-19T02:48:56;9.57;;;5.68;;
70953;SDS011;58618;47.490;8.736;2023-06-19T02:51:43;8.30;;;5.70;;
70953;SDS011;58618;47.490;8.736;2023-06-19T02:54:31;10.00;;;6.27;;
70953;SDS011;58618;47.490;8.736;2023-06-19T02:57:18;9.43;;;6.35;;
70953;SDS011;58618;47.490;8.736;2023-06-19T03:00:06;7.60;;;5.60;;
70953;SDS011;58618;47.490;8.736;2023-06-19T03:02:56;11.02;;;6.78;;
70953;SDS011;58618;47.490;8.736;2023-06-19T03:05:44;8.70;;;5.85;;
70953;SDS011;58618;47.490;8.736;2023-06-19T03:08:32;10.80;;;6.43;;
70953;SDS011;58618;47.490;8.736;2023-06-19T03:11:20;11.27;;;6.90;;
70953;SDS011;58618;47.490;8.736;2023-06-19T03:14:07;10.60;;;7.20;;
70953;SDS011;58618;47.490;8.736;2023-06-19T03:16:55;9.00;;;6.80;;
70953;SDS011;58618;47.490;8.736;2023-06-19T03:19:43;12.10;;;7.78;;
70953;SDS011;58618;47.490;8.736;2023-06-19T03:22:31;10.73;;;7.63;;
70953;SDS011;58618;47.490;8.736;2023-06-19T03:25:18;12.88;;;8.32;;
70953;SDS011;58618;47.490;8.736;2023-06-19T03:28:06;11.68;;;7.55;;
70953;SDS011;58618;47.490;8.736;2023-06-19T03:30:53;12.00;;;7.72;;
70953;SDS011;58618;47.490;8.736;2023-06-19T03:33:41;14.55;;;8.30;;
70953;SDS011;58618;47.490;8.736;2023-06-19T03:36:29;17.37;;;8.33;;
70953;SDS011;58618;47.490;8.736;2023-06-19T03:39:17;13.35;;;8.18;;
70953;SDS011;58618;47.490;8.736;2023-06-19T03:42:04;13.07;;;8.10;;
70953;SDS011;58618;47.490;8.736;2023-06-19T03:45:01;11.55;;;7.50;;
70953;SDS011;58618;47.490;8.736;2023-06-19T03:47:48;11.77;;;7.15;;
70953;SDS011;58618;47.490;8.736;2023-06-19T03:50:35;11.40;;;7.37;;
70953;SDS011;58618;47.490;8.736;2023-06-19T03:53:24;10.63;;;7.50;;
70953;SDS011;58618;47.490;8.736;2023-06-19T03:56:11;10.80;;;7.70;;
70953;SDS011;58618;47.490;8.736;2023-06-19T03:58:59;12.20;;;7.93;;
70953;SDS011;58618;47.490;8.736;2023-06-19T04:01:46;10.98;;;7.22;;
70953;SDS011;58618;47.490;8.736;2023-06-19T04:04:33;12.90;;;7.67;;
70953;SDS011;58618;47.490;8.736;2023-06-19T04:07:21;11.20;;;7.60;;
70953;SDS011;58618;47.490;8.736;2023-06-19T04:10:09;11.63;;;8.52;;
70953;SDS011;58618;47.490;8.736;2023-06-19T04:12:57;11.90;;;7.40;;
70953;SDS011;58618;47.490;8.736;2023-06-19T04:15:44;13.63;;;7.95;;
70953;SDS011;58618;47.490;8.736;2023-06-19T04:18:32;11.77;;;8.07;;
70953;SDS011;58618;47.490;8.736;2023-06-19T04:21:19;12.25;;;8.18;;
70953;SDS011;58618;47.490;8.736;2023-06-19T04:24:07;13.55;;;8.57;;
70953;SDS011;58618;47.490;8.736;2023-06-19T04:26:56;14.18;;;8.35;;
70953;SDS011;58618;47.490;8.736;2023-06-19T04:29:43;14.15;;;8.45;;
70953;SDS011;58618;47.490;8.736;2023-06-19T04:32:31;12.67;;;9.00;;
70953;SDS011;58618;47.490;8.736;2023-06-19T04:35:18;14.65;;;8.98;;
70953;SDS011;58618;47.490;8.736;2023-06-19T04:38:05;14.55;;;8.20;;
70953;SDS011;58618;47.490;8.736;2023-06-19T04:40:53;13.52;;;8.55;;
70953;SDS011;58618;47.490;8.736;2023-06-19T04:43:42;12.15;;;8.25;;
70953;SDS011;58618;47.490;8.736;2023-06-19T04:46:29;12.20;;;8.67;;
70953;SDS011;58618;47.490;8.736;2023-06-19T04:49:16;11.77;;;8.50;;
70953;SDS011;58618;47.490;8.736;2023-06-19T04:52:04;11.32;;;8.00;;
70953;SDS011;58618;47.490;8.736;2023-06-19T04:54:51;10.88;;;8.02;;
70953;SDS011;58618;47.490;8.736;2023-06-19T04:57:39;12.65;;;8.63;;
70953;SDS011;58618;47.490;8.736;2023-06-19T05:00:27;11.80;;;8.20;;
70953;SDS011;58618;47.490;8.736;2023-06-19T05:03:15;11.20;;;7.68;;
70953;SDS011;58618;47.490;8.736;2023-06-19T05:06:02;13.13;;;7.85;;
70953;SDS011;58618;47.490;8.736;2023-06-19T05:08:50;11.88;;;7.90;;
70953;SDS011;58618;47.490;8.736;2023-06-19T05:11:37;10.07;;;7.57;;
70953;SDS011;58618;47.490;8.736;2023-06-19T05:14:24;13.43;;;8.80;;
70953;SDS011;58618;47.490;8.736;2023-06-19T05:17:13;11.30;;;8.48;;
70953;SDS011;58618;47.490;8.736;2023-06-19T05:20:00;11.10;;;7.88;;
70953;SDS011;58618;47.490;8.736;2023-06-19T05:22:47;13.55;;;8.52;;
70953;SDS011;58618;47.490;8.736;2023-06-19T05:25:35;12.77;;;8.48;;
70953;SDS011;58618;47.490;8.736;2023-06-19T05:28:22;12.47;;;8.33;;
70953;SDS011;58618;47.490;8.736;2023-06-19T05:31:09;11.70;;;8.38;;
70953;SDS011;58618;47.490;8.736;2023-06-19T05:33:58;10.55;;;7.45;;
70953;SDS011;58618;47.490;8.736;2023-06-19T05:36:45;10.15;;;7.38;;
70953;SDS011;58618;47.490;8.736;2023-06-19T05:39:33;10.68;;;7.45;;
70953;SDS011;58618;47.490;8.736;2023-06-19T05:42:20;13.63;;;8.43;;
70953;SDS011;58618;47.490;8.736;2023-06-19T05:45:07;12.38;;;7.97;;
70953;SDS011;58618;47.490;8.736;2023-06-19T05:47:55;11.77;;;8.00;;
70953;SDS011;58618;47.490;8.736;2023-06-19T05:50:44;12.10;;;7.75;;
70953;SDS011;58618;47.490;8.736;2023-06-19T05:53:31;13.57;;;8.65;;
70953;SDS011;58618;47.490;8.736;2023-06-19T05:56:19;10.63;;;7.63;;
70953;SDS011;58618;47.490;8.736;2023-06-19T05:59:06;11.05;;;7.70;;
70953;SDS011;58618;47.490;8.736;2023-06-19T06:01:53;11.15;;;7.63;;
70953;SDS011;58618;47.490;8.736;2023-06-19T06:04:41;10.93;;;7.40;;
70953;SDS011;58618;47.490;8.736;2023-06-19T06:07:30;11.32;;;7.63;;
70953;SDS011;58618;47.490;8.736;2023-06-19T06:10:18;9.87;;;7.13;;
70953;SDS011;58618;47.490;8.736;2023-06-19T06:13:06;10.10;;;7.20;;
70953;SDS011;58618;47.490;8.736;2023-06-19T06:15:54;10.15;;;7.20;;
70953;SDS011;58618;47.490;8.736;2023-06-19T06:18:41;10.00;;;6.78;;
70953;SDS011;58618;47.490;8.736;2023-06-19T06:21:28;10.27;;;7.60;;
70953;SDS011;58618;47.490;8.736;2023-06-19T06:24:17;12.90;;;7.90;;
70953;SDS011;58618;47.490;8.736;2023-06-19T06:27:05;9.35;;;7.22;;
70953;SDS011;58618;47.490;8.736;2023-06-19T06:29:53;8.23;;;6.03;;
70953;SDS011;58618;47.490;8.736;2023-06-19T06:32:40;8.27;;;6.45;;
70953;SDS011;58618;47.490;8.736;2023-06-19T06:35:27;10.23;;;6.03;;
70953;SDS011;58618;47.490;8.736;2023-06-19T06:38:15;8.20;;;6.03;;
70953;SDS011;58618;47.490;8.736;2023-06-19T06:41:03;6.72;;;5.20;;
70953;SDS011;58618;47.490;8.736;2023-06-19T06:43:51;7.75;;;5.63;;
70953;SDS011;58618;47.490;8.736;2023-06-19T06:46:39;8.85;;;5.63;;
70953;SDS011;58618;47.490;8.736;2023-06-19T06:49:27;8.05;;;5.55;;
70953;SDS011;58618;47.490;8.736;2023-06-19T06:52:14;8.87;;;6.30;;
70953;SDS011;58618;47.490;8.736;2023-06-19T06:55:01;9.65;;;6.90;;
70953;SDS011;58618;47.490;8.736;2023-06-19T06:57:50;9.57;;;7.43;;
70953;SDS011;58618;47.490;8.736;2023-06-19T07:00:37;8.90;;;6.70;;
70953;SDS011;58618;47.490;8.736;2023-06-19T07:03:24;8.82;;;6.43;;
70953;SDS011;58618;47.490;8.736;2023-06-19T07:06:12;9.17;;;6.40;;
70953;SDS011;58618;47.490;8.736;2023-06-19T07:08:59;8.65;;;5.57;;
70953;SDS011;58618;47.490;8.736;2023-06-19T07:11:46;6.40;;;5.03;;
70953;SDS011;58618;47.490;8.736;2023-06-19T07:14:35;6.88;;;4.93;;
70953;SDS011;58618;47.490;8.736;2023-06-19T07:17:22;6.45;;;4.82;;
70953;SDS011;58618;47.490;8.736;2023-06-19T07:20:10;7.33;;;5.07;;
70953;SDS011;58618;47.490;8.736;2023-06-19T07:22:57;6.15;;;4.80;;
70953;SDS011;58618;47.490;8.736;2023-06-19T07:25:46;5.03;;;4.18;;
70953;SDS011;58618;47.490;8.736;2023-06-19T07:28:33;5.10;;;3.83;;
70953;SDS011;58618;47.490;8.736;2023-06-19T07:31:23;5.53;;;4.15;;
70953;SDS011;58618;47.490;8.736;2023-06-19T07:34:10;5.13;;;4.10;;
70953;SDS011;58618;47.490;8.736;2023-06-19T07:36:58;5.40;;;4.00;;
70953;SDS011;58618;47.490;8.736;2023-06-19T07:39:45;6.38;;;4.88;;
70953;SDS011;58618;47.490;8.736;2023-06-19T07:42:32;6.38;;;4.30;;
70953;SDS011;58618;47.490;8.736;2023-06-19T07:45:19;7.65;;;4.45;;
70953;SDS011;58618;47.490;8.736;2023-06-19T07:48:10;6.20;;;4.40;;
70953;SDS011;58618;47.490;8.736;2023-06-19T07:50:57;8.93;;;4.85;;
70953;SDS011;58618;47.490;8.736;2023-06-19T07:53:44;5.00;;;4.38;;
70953;SDS011;58618;47.490;8.736;2023-06-19T07:56:31;5.18;;;4.30;;
70953;SDS011;58618;47.490;8.736;2023-06-19T07:59:19;6.65;;;4.10;;
70953;SDS011;58618;47.490;8.736;2023-06-19T08:02:07;5.70;;;4.73;;
70953;SDS011;58618;47.490;8.736;2023-06-19T08:04:56;5.53;;;4.07;;
70953;SDS011;58618;47.490;8.736;2023-06-19T08:07:43;4.95;;;4.45;;
70953;SDS011;58618;47.490;8.736;2023-06-19T08:10:30;5.20;;;4.22;;
70953;SDS011;58618;47.490;8.736;2023-06-19T08:13:18;5.63;;;4.18;;
70953;SDS011;58618;47.490;8.736;2023-06-19T08:16:05;4.43;;;4.00;;
70953;SDS011;58618;47.490;8.736;2023-06-19T08:18:53;6.05;;;4.47;;
70953;SDS011;58618;47.490;8.736;2023-06-19T08:21:41;5.20;;;4.07;;
70953;SDS011;58618;47.490;8.736;2023-06-19T08:24:28;6.13;;;4.82;;
70953;SDS011;58618;47.490;8.736;2023-06-19T08:27:16;5.50;;;4.45;;
70953;SDS011;58618;47.490;8.736;2023-06-19T08:30:03;5.70;;;4.30;;
70953;SDS011;58618;47.490;8.736;2023-06-19T08:32:51;5.22;;;4.72;;
70953;SDS011;58618;47.490;8.736;2023-06-19T08:35:38;5.15;;;4.35;;
70953;SDS011;58618;47.490;8.736;2023-06-19T08:38:27;6.18;;;4.60;;
70953;SDS011;58618;47.490;8.736;2023-06-19T08:41:15;5.25;;;4.22;;
70953;SDS011;58618;47.490;8.736;2023-06-19T08:44:02;5.37;;;4.30;;
70953;SDS011;58618;47.490;8.736;2023-06-19T08:46:50;6.50;;;4.53;;
70953;SDS011;58618;47.490;8.736;2023-06-19T08:49:38;4.90;;;4.35;;
70953;SDS011;58618;47.490;8.736;2023-06-19T08:52:26;5.03;;;4.40;;
70953;SDS011;58618;47.490;8.736;2023-06-19T08:55:15;5.80;;;4.35;;
70953;SDS011;58618;47.490;8.736;2023-06-19T08:58:02;5.73;;;4.33;;
70953;SDS011;58618;47.490;8.736;2023-06-19T09:00:49;4.90;;;4.40;;
70953;SDS011;58618;47.490;8.736;2023-06-19T09:03:37;5.95;;;4.40;;
70953;SDS011;58618;47.490;8.736;2023-06-19T09:06:24;5.00;;;4.38;;
70953;SDS011;58618;47.490;8.736;2023-06-19T09:09:11;6.07;;;4.22;;
70953;SDS011;58618;47.490;8.736;2023-06-19T09:12:01;5.70;;;4.70;;
70953;SDS011;58618;47.490;8.736;2023-06-19T09:14:50;5.28;;;4.50;;
70953;SDS011;58618;47.490;8.736;2023-06-19T09:17:38;5.95;;;4.65;;
70953;SDS011;58618;47.490;8.736;2023-06-19T09:20:25;4.97;;;4.13;;
70953;SDS011;58618;47.490;8.736;2023-06-19T09:23:14;4.53;;;3.90;;
70953;SDS011;58618;47.490;8.736;2023-06-19T09:26:01;4.23;;;3.83;;
70953;SDS011;58618;47.490;8.736;2023-06-19T09:28:50;5.43;;;4.20;;
70953;SDS011;58618;47.490;8.736;2023-06-19T09:31:37;4.85;;;4.13;;
70953;SDS011;58618;47.490;8.736;2023-06-19T09:34:27;5.32;;;4.22;;
70953;SDS011;58618;47.490;8.736;2023-06-19T09:37:14;5.00;;;4.50;;
70953;SDS011;58618;47.490;8.736;2023-06-19T09:40:03;7.00;;;4.50;;
70953;SDS011;58618;47.490;8.736;2023-06-19T09:42:56;9.90;;;4.78;;
70953;SDS011;58618;47.490;8.736;2023-06-19T09:45:47;5.75;;;4.88;;
70953;SDS011;58618;47.490;8.736;2023-06-19T09:48:41;5.63;;;4.90;;
70953;SDS011;58618;47.490;8.736;2023-06-19T09:51:31;5.35;;;4.47;;
70953;SDS011;58618;47.490;8.736;2023-06-19T09:54:20;8.00;;;5.30;;
70953;SDS011;58618;47.490;8.736;2023-06-19T09:57:08;6.25;;;4.82;;
70953;SDS011;58618;47.490;8.736;2023-06-19T09:59:57;5.85;;;5.03;;
70953;SDS011;58618;47.490;8.736;2023-06-19T10:02:55;8.35;;;5.25;;
70953;SDS011;58618;47.490;8.736;2023-06-19T10:05:44;6.95;;;5.72;;
70953;SDS011;58618;47.490;8.736;2023-06-19T10:08:37;7.83;;;5.87;;
70953;SDS011;58618;47.490;8.736;2023-06-19T10:11:26;8.07;;;5.85;;
70953;SDS011;58618;47.490;8.736;2023-06-19T10:14:15;7.72;;;5.80;;
70953;SDS011;58618;47.490;8.736;2023-06-19T10:17:07;6.47;;;5.47;;
70953;SDS011;58618;47.490;8.736;2023-06-19T10:19:56;7.55;;;5.43;;
70953;SDS011;58618;47.490;8.736;2023-06-19T10:22:50;7.40;;;6.00;;
70953;SDS011;58618;47.490;8.736;2023-06-19T10:25:39;8.13;;;6.07;;
70953;SDS011;58618;47.490;8.736;2023-06-19T10:28:28;9.13;;;5.70;;
70953;SDS011;58618;47.490;8.736;2023-06-19T10:31:16;8.25;;;6.07;;
70953;SDS011;58618;47.490;8.736;2023-06-19T10:34:04;7.50;;;5.78;;
70953;SDS011;58618;47.490;8.736;2023-06-19T10:36:52;7.27;;;5.93;;
70953;SDS011;58618;47.490;8.736;2023-06-19T10:39:44;7.35;;;5.63;;
70953;SDS011;58618;47.490;8.736;2023-06-19T10:42:31;7.43;;;6.00;;
70953;SDS011;58618;47.490;8.736;2023-06-19T10:45:18;7.20;;;5.93;;
70953;SDS011;58618;47.490;8.736;2023-06-19T10:48:17;7.78;;;5.70;;
70953;SDS011;58618;47.490;8.736;2023-06-19T10:51:05;7.70;;;6.17;;
70953;SDS011;58618;47.490;8.736;2023-06-19T10:53:54;7.05;;;5.63;;
70953;SDS011;58618;47.490;8.736;2023-06-19T10:56:42;7.45;;;5.78;;
70953;SDS011;58618;47.490;8.736;2023-06-19T10:59:30;7.00;;;5.38;;
70953;SDS011;58618;47.490;8.736;2023-06-19T11:02:17;10.18;;;5.70;;
70953;SDS011;58618;47.490;8.736;2023-06-19T11:05:05;9.20;;;5.30;;
70953;SDS011;58618;47.490;8.736;2023-06-19T11:07:53;6.72;;;5.32;;
70953;SDS011;58618;47.490;8.736;2023-06-19T11:10:43;8.25;;;5.38;;
70953;SDS011;58618;47.490;8.736;2023-06-19T11:13:30;8.38;;;5.40;;
70953;SDS011;58618;47.490;8.736;2023-06-19T11:16:17;6.78;;;5.15;;
70953;SDS011;58618;47.490;8.736;2023-06-19T11:19:07;6.00;;;4.83;;
70953;SDS011;58618;47.490;8.736;2023-06-19T11:21:56;6.28;;;4.82;;
70953;SDS011;58618;47.490;8.736;2023-06-19T11:24:45;6.28;;;4.90;;
70953;SDS011;58618;47.490;8.736;2023-06-19T11:27:36;5.95;;;4.47;;
70953;SDS011;58618;47.490;8.736;2023-06-19T11:30:29;6.75;;;4.93;;
70953;SDS011;58618;47.490;8.736;2023-06-19T11:33:18;5.90;;;4.90;;
70953;SDS011;58618;47.490;8.736;2023-06-19T11:36:08;7.63;;;5.47;;
70953;SDS011;58618;47.490;8.736;2023-06-19T11:38:55;7.68;;;6.22;;
70953;SDS011;58618;47.490;8.736;2023-06-19T11:41:43;7.45;;;5.45;;
70953;SDS011;58618;47.490;8.736;2023-06-19T11:44:32;7.28;;;6.05;;
70953;SDS011;58618;47.490;8.736;2023-06-19T11:47:19;8.43;;;5.87;;
70953;SDS011;58618;47.490;8.736;2023-06-19T11:50:07;7.00;;;5.80;;
70953;SDS011;58618;47.490;8.736;2023-06-19T11:52:55;7.15;;;5.90;;
70953;SDS011;58618;47.490;8.736;2023-06-19T11:55:45;8.05;;;5.80;;
70953;SDS011;58618;47.490;8.736;2023-06-19T11:58:33;7.15;;;5.90;;
70953;SDS011;58618;47.490;8.736;2023-06-19T12:01:22;7.40;;;5.53;;
70953;SDS011;58618;47.490;8.736;2023-06-19T12:04:09;6.63;;;5.30;;
70953;SDS011;58618;47.490;8.736;2023-06-19T12:06:57;7.00;;;5.38;;
70953;SDS011;58618;47.490;8.736;2023-06-19T12:09:45;7.93;;;5.47;;
70953;SDS011;58618;47.490;8.736;2023-06-19T12:12:32;7.95;;;5.50;;
70953;SDS011;58618;47.490;8.736;2023-06-19T12:15:20;7.83;;;5.77;;
70953;SDS011;58618;47.490;8.736;2023-06-19T12:18:09;6.25;;;5.47;;
70953;SDS011;58618;47.490;8.736;2023-06-19T12:20:58;7.65;;;5.53;;
70953;SDS011;58618;47.490;8.736;2023-06-19T12:23:45;7.13;;;5.82;;
70953;SDS011;58618;47.490;8.736;2023-06-19T12:26:33;6.18;;;5.00;;
70953;SDS011;58618;47.490;8.736;2023-06-19T12:29:22;7.93;;;4.93;;
70953;SDS011;58618;47.490;8.736;2023-06-19T12:32:09;6.40;;;5.28;;
70953;SDS011;58618;47.490;8.736;2023-06-19T12:34:58;6.38;;;5.13;;
70953;SDS011;58618;47.490;8.736;2023-06-19T12:37:45;6.57;;;5.45;;
70953;SDS011;58618;47.490;8.736;2023-06-19T12:40:33;6.32;;;5.55;;
70953;SDS011;58618;47.490;8.736;2023-06-19T12:43:20;7.37;;;5.10;;
70953;SDS011;58618;47.490;8.736;2023-06-19T12:46:07;7.43;;;5.28;;
70953;SDS011;58618;47.490;8.736;2023-06-19T12:48:54;7.65;;;5.00;;
70953;SDS011;58618;47.490;8.736;2023-06-19T12:51:43;6.90;;;5.00;;
70953;SDS011;58618;47.490;8.736;2023-06-19T12:54:30;6.78;;;5.07;;
70953;SDS011;58618;47.490;8.736;2023-06-19T12:57:18;6.97;;;4.57;;
70953;SDS011;58618;47.490;8.736;2023-06-19T13:00:06;6.93;;;4.72;;
70953;SDS011;58618;47.490;8.736;2023-06-19T13:02:55;5.50;;;4.40;;
70953;SDS011;58618;47.490;8.736;2023-06-19T13:05:42;6.68;;;4.90;;
70953;SDS011;58618;47.490;8.736;2023-06-19T13:08:31;5.95;;;4.40;;
70953;SDS011;58618;47.490;8.736;2023-06-19T13:11:18;6.00;;;4.73;;
70953;SDS011;58618;47.490;8.736;2023-06-19T13:14:05;6.13;;;4.60;;
70953;SDS011;58618;47.490;8.736;2023-06-19T13:16:52;5.80;;;4.57;;
70953;SDS011;58618;47.490;8.736;2023-06-19T13:19:40;6.63;;;5.30;;
70953;SDS011;58618;47.490;8.736;2023-06-19T13:22:27;6.72;;;4.88;;
70953;SDS011;58618;47.490;8.736;2023-06-19T13:25:16;7.50;;;4.83;;
70953;SDS011;58618;47.490;8.736;2023-06-19T13:28:03;5.38;;;4.47;;
70953;SDS011;58618;47.490;8.736;2023-06-19T13:30:50;8.75;;;4.80;;
70953;SDS011;58618;47.490;8.736;2023-06-19T13:33:38;5.82;;;4.53;;
70953;SDS011;58618;47.490;8.736;2023-06-19T13:36:25;5.90;;;4.60;;
70953;SDS011;58618;47.490;8.736;2023-06-19T13:39:13;5.67;;;4.70;;
70953;SDS011;58618;47.490;8.736;2023-06-19T13:42:02;5.50;;;4.43;;
70953;SDS011;58618;47.490;8.736;2023-06-19T13:44:50;6.30;;;4.90;;
70953;SDS011;58618;47.490;8.736;2023-06-19T13:47:37;6.72;;;4.82;;
70953;SDS011;58618;47.490;8.736;2023-06-19T13:50:24;6.30;;;4.75;;
70953;SDS011;58618;47.490;8.736;2023-06-19T13:53:11;6.00;;;4.97;;
70953;SDS011;58618;47.490;8.736;2023-06-19T13:55:59;5.68;;;5.00;;
70953;SDS011;58618;47.490;8.736;2023-06-19T13:58:47;6.45;;;4.88;;
70953;SDS011;58618;47.490;8.736;2023-06-19T14:01:35;7.50;;;4.95;;
70953;SDS011;58618;47.490;8.736;2023-06-19T14:04:22;8.38;;;5.05;;
70953;SDS011;58618;47.490;8.736;2023-06-19T14:07:09;6.40;;;4.50;;
70953;SDS011;58618;47.490;8.736;2023-06-19T14:09:56;6.28;;;4.88;;
70953;SDS011;58618;47.490;8.736;2023-06-19T14:12:44;7.60;;;5.30;;
70953;SDS011;58618;47.490;8.736;2023-06-19T14:15:32;6.78;;;5.47;;
70953;SDS011;58618;47.490;8.736;2023-06-19T14:18:20;7.75;;;5.28;;
70953;SDS011;58618;47.490;8.736;2023-06-19T14:21:07;7.40;;;5.40;;
70953;SDS011;58618;47.490;8.736;2023-06-19T14:23:54;6.80;;;5.43;;
70953;SDS011;58618;47.490;8.736;2023-06-19T14:26:41;6.03;;;5.28;;
70953;SDS011;58618;47.490;8.736;2023-06-19T14:29:29;9.82;;;5.70;;
70953;SDS011;58618;47.490;8.736;2023-06-19T14:32:17;5.65;;;5.05;;
70953;SDS011;58618;47.490;8.736;2023-06-19T14:35:05;7.27;;;5.40;;
70953;SDS011;58618;47.490;8.736;2023-06-19T14:37:53;6.70;;;5.15;;
70953;SDS011;58618;47.490;8.736;2023-06-19T14:40:41;7.03;;;5.50;;
70953;SDS011;58618;47.490;8.736;2023-06-19T14:43:28;9.15;;;5.40;;
70953;SDS011;58618;47.490;8.736;2023-06-19T14:46:18;6.97;;;5.55;;
70953;SDS011;58618;47.490;8.736;2023-06-19T14:49:07;7.23;;;5.50;;
70953;SDS011;58618;47.490;8.736;2023-06-19T14:51:59;8.80;;;5.80;;
70953;SDS011;58618;47.490;8.736;2023-06-19T14:54:47;7.20;;;5.55;;
70953;SDS011;58618;47.490;8.736;2023-06-19T14:57:35;7.65;;;5.32;;
70953;SDS011;58618;47.490;8.736;2023-06-19T15:00:23;6.50;;;5.65;;
70953;SDS011;58618;47.490;8.736;2023-06-19T15:03:10;7.67;;;5.53;;
70953;SDS011;58618;47.490;8.736;2023-06-19T15:05:59;6.90;;;5.32;;
70953;SDS011;58618;47.490;8.736;2023-06-19T15:08:46;6.88;;;5.40;;
70953;SDS011;58618;47.490;8.736;2023-06-19T15:11:33;8.35;;;5.88;;
70953;SDS011;58618;47.490;8.736;2023-06-19T15:14:21;7.75;;;5.47;;
70953;SDS011;58618;47.490;8.736;2023-06-19T15:17:08;8.20;;;5.77;;
70953;SDS011;58618;47.490;8.736;2023-06-19T15:19:55;7.72;;;5.70;;
70953;SDS011;58618;47.490;8.736;2023-06-19T15:22:44;7.32;;;5.38;;
70953;SDS011;58618;47.490;8.736;2023-06-19T15:25:31;8.13;;;5.72;;
70953;SDS011;58618;47.490;8.736;2023-06-19T15:28:19;9.23;;;5.97;;
70953;SDS011;58618;47.490;8.736;2023-06-19T15:31:08;8.73;;;5.73;;
70953;SDS011;58618;47.490;8.736;2023-06-19T15:33:55;7.80;;;5.50;;
70953;SDS011;58618;47.490;8.736;2023-06-19T15:36:43;6.47;;;5.38;;
70953;SDS011;58618;47.490;8.736;2023-06-19T15:39:31;8.43;;;5.85;;
70953;SDS011;58618;47.490;8.736;2023-06-19T15:42:18;7.32;;;5.90;;
70953;SDS011;58618;47.490;8.736;2023-06-19T15:45:06;8.50;;;5.70;;
70953;SDS011;58618;47.490;8.736;2023-06-19T15:47:54;6.00;;;5.30;;
70953;SDS011;58618;47.490;8.736;2023-06-19T15:50:42;6.97;;;5.25;;
70953;SDS011;58618;47.490;8.736;2023-06-19T15:53:29;8.30;;;5.43;;
70953;SDS011;58618;47.490;8.736;2023-06-19T15:56:18;10.10;;;5.45;;
70953;SDS011;58618;47.490;8.736;2023-06-19T15:59:05;7.10;;;5.20;;
70953;SDS011;58618;47.490;8.736;2023-06-19T16:01:52;6.38;;;5.40;;
70953;SDS011;58618;47.490;8.736;2023-06-19T16:04:39;7.35;;;5.10;;
70953;SDS011;58618;47.490;8.736;2023-06-19T16:07:27;7.15;;;5.10;;
70953;SDS011;58618;47.490;8.736;2023-06-19T16:10:14;7.38;;;5.50;;
70953;SDS011;58618;47.490;8.736;2023-06-19T16:13:03;6.07;;;4.70;;
70953;SDS011;58618;47.490;8.736;2023-06-19T16:15:50;6.22;;;4.70;;
70953;SDS011;58618;47.490;8.736;2023-06-19T16:18:37;6.18;;;4.72;;
70953;SDS011;58618;47.490;8.736;2023-06-19T16:21:25;6.78;;;4.93;;
70953;SDS011;58618;47.490;8.736;2023-06-19T16:24:13;5.90;;;4.70;;
70953;SDS011;58618;47.490;8.736;2023-06-19T16:27:01;5.80;;;4.50;;
70953;SDS011;58618;47.490;8.736;2023-06-19T16:29:49;6.03;;;4.97;;
70953;SDS011;58618;47.490;8.736;2023-06-19T16:32:37;5.97;;;4.30;;
70953;SDS011;58618;47.490;8.736;2023-06-19T16:35:24;5.95;;;4.88;;
70953;SDS011;58618;47.490;8.736;2023-06-19T16:38:11;5.53;;;4.47;;
70953;SDS011;58618;47.490;8.736;2023-06-19T16:40:59;6.20;;;5.00;;
70953;SDS011;58618;47.490;8.736;2023-06-19T16:43:46;7.15;;;5.20;;
70953;SDS011;58618;47.490;8.736;2023-06-19T16:46:35;5.97;;;4.50;;
70953;SDS011;58618;47.490;8.736;2023-06-19T16:49:23;7.50;;;4.50;;